createdAt,value
2018-06-09T00:02:18.267Z,18.70
2018-06-09T00:04:46.715Z,18.80
2018-06-09T00:07:15.167Z,18.70
2018-06-09T00:09:43.590Z,18.70
2018-06-09T00:12:12.139Z,18.60
2018-06-09T00:14:40.612Z,18.70
2018-06-09T00:17:09.016Z,18.60
2018-06-09T00:19:37.530Z,18.60
2018-06-09T00:22:06.049Z,18.60
2018-06-09T00:24:34.550Z,18.50
2018-06-09T00:27:02.972Z,18.50
2018-06-09T00:29:31.357Z,18.40
2018-06-09T00:31:59.793Z,18.50
2018-06-09T00:34:28.244Z,18.40
2018-06-09T00:36:56.618Z,18.40
2018-06-09T00:39:25.064Z,18.40
2018-06-09T00:41:53.483Z,18.30
2018-06-09T00:44:21.889Z,18.30
2018-06-09T00:46:50.305Z,18.10
2018-06-09T00:49:18.726Z,18.00
2018-06-09T00:51:47.141Z,18.10
2018-06-09T00:54:15.527Z,18.20
2018-06-09T00:56:45.204Z,18.20
2018-06-09T00:59:13.634Z,18.20
2018-06-09T01:01:42.256Z,18.20
2018-06-09T01:04:10.752Z,18.20
2018-06-09T01:06:39.156Z,18.20
2018-06-09T01:09:08.557Z,18.20
2018-06-09T01:11:37.121Z,18.10
2018-06-09T01:14:05.624Z,18.10
2018-06-09T01:16:34.037Z,18.00
2018-06-09T01:19:02.584Z,17.90
2018-06-09T01:21:30.975Z,17.90
2018-06-09T01:23:59.578Z,17.90
2018-06-09T01:26:28.030Z,17.80
2018-06-09T01:28:56.446Z,17.80
2018-06-09T01:31:24.921Z,17.70
2018-06-09T01:33:53.309Z,17.70
2018-06-09T01:36:21.714Z,17.60
2018-06-09T01:38:50.204Z,17.60
2018-06-09T01:41:18.581Z,17.60
2018-06-09T01:43:47.027Z,17.60
2018-06-09T01:46:15.608Z,17.50
2018-06-09T01:48:44.087Z,17.50
2018-06-09T01:51:12.477Z,17.50
2018-06-09T01:53:40.874Z,17.50
2018-06-09T01:56:09.269Z,17.40
2018-06-09T02:01:05.793Z,17.20
2018-06-09T02:03:34.193Z,17.20
2018-06-09T02:06:02.672Z,17.30
2018-06-09T02:08:31.093Z,17.30
2018-06-09T02:10:59.486Z,17.20
2018-06-09T02:13:27.888Z,17.30
2018-06-09T02:15:56.424Z,17.20
2018-06-09T02:18:24.834Z,17.20
2018-06-09T02:20:53.216Z,17.20
2018-06-09T02:23:21.729Z,17.10
2018-06-09T02:25:50.146Z,17.00
2018-06-09T02:28:18.597Z,17.00
2018-06-09T02:30:47.013Z,17.00
2018-06-09T02:33:15.484Z,17.10
2018-06-09T02:35:43.900Z,17.10
2018-06-09T02:38:12.321Z,17.10
2018-06-09T02:40:40.794Z,17.10
2018-06-09T02:43:09.345Z,17.10
2018-06-09T02:45:37.849Z,17.00
2018-06-09T02:48:06.302Z,17.10
2018-06-09T02:50:34.708Z,17.10
2018-06-09T02:53:03.237Z,17.00
2018-06-09T02:55:31.656Z,17.10
2018-06-09T03:00:28.343Z,17.00
2018-06-09T03:02:56.927Z,17.00
2018-06-09T03:05:25.735Z,17.00
2018-06-09T03:07:54.184Z,17.00
2018-06-09T03:10:22.626Z,16.90
2018-06-09T03:12:51.073Z,16.90
2018-06-09T03:15:19.468Z,16.90
2018-06-09T03:17:47.879Z,16.90
2018-06-09T03:20:16.314Z,16.80
2018-06-09T03:22:44.696Z,16.80
2018-06-09T03:25:13.173Z,16.80
2018-06-09T03:27:41.599Z,16.80
2018-06-09T03:30:10.021Z,16.80
2018-06-09T03:32:38.499Z,16.80
2018-06-09T03:35:06.916Z,16.80
2018-06-09T03:37:35.448Z,16.80
2018-06-09T03:40:04.124Z,16.80
2018-06-09T03:42:32.775Z,16.90
2018-06-09T03:45:01.275Z,16.90
2018-06-09T03:49:57.869Z,16.90
2018-06-09T03:52:26.280Z,17.00
2018-06-09T03:54:54.739Z,17.00
2018-06-09T03:57:23.118Z,17.00
2018-06-09T03:59:51.594Z,17.00
2018-06-09T04:02:20.133Z,17.10
2018-06-09T04:04:48.573Z,17.10
2018-06-09T04:07:17.030Z,17.10
2018-06-09T04:09:45.412Z,17.10
2018-06-09T04:12:14.178Z,17.10
2018-06-09T04:14:42.644Z,17.10
2018-06-09T04:17:11.928Z,17.20
2018-06-09T04:19:40.366Z,17.20
2018-06-09T04:22:08.936Z,17.20
2018-06-09T04:24:37.428Z,17.20
2018-06-09T04:27:05.840Z,17.20
2018-06-09T04:29:34.334Z,17.20
2018-06-09T04:32:02.844Z,17.30
2018-06-09T04:34:31.294Z,17.40
2018-06-09T04:36:59.746Z,17.40
2018-06-09T04:39:28.164Z,17.50
2018-06-09T04:41:56.579Z,17.60
2018-06-09T04:44:24.981Z,17.60
2018-06-09T04:46:53.526Z,17.60
2018-06-09T04:49:21.968Z,17.70
2018-06-09T04:51:50.404Z,17.80
2018-06-09T04:54:18.804Z,17.90
2018-06-09T04:56:47.279Z,18.00
2018-06-09T04:59:15.856Z,18.10
2018-06-09T05:01:45.248Z,18.20
2018-06-09T05:04:14.000Z,18.20
2018-06-09T05:06:42.389Z,18.30
2018-06-09T05:09:10.797Z,18.20
2018-06-09T05:11:39.234Z,18.20
2018-06-09T05:14:07.658Z,18.20
2018-06-09T05:16:36.197Z,18.20
2018-06-09T05:19:04.633Z,18.20
2018-06-09T05:21:33.102Z,18.40
2018-06-09T05:24:01.609Z,18.60
2018-06-09T05:26:30.101Z,18.70
2018-06-09T05:28:58.517Z,18.70
2018-06-09T05:31:26.967Z,18.70
2018-06-09T05:33:55.474Z,18.60
2018-06-09T05:36:23.953Z,18.70
2018-06-09T05:38:52.445Z,18.80
2018-06-09T05:41:21.087Z,18.80
2018-06-09T05:43:49.463Z,18.90
2018-06-09T05:46:17.907Z,19.10
2018-06-09T05:48:46.382Z,19.40
2018-06-09T05:51:14.803Z,19.90
2018-06-09T05:53:43.222Z,20.40
2018-06-09T05:56:11.669Z,20.40
2018-06-09T05:58:40.114Z,20.70
2018-06-09T06:01:08.527Z,21.00
2018-06-09T06:03:36.969Z,21.50
2018-06-09T06:06:05.434Z,21.60
2018-06-09T06:08:33.853Z,22.00
2018-06-09T06:11:02.273Z,22.10
2018-06-09T06:13:30.718Z,22.60
2018-06-09T06:15:59.167Z,23.00
2018-06-09T06:18:27.976Z,22.90
2018-06-09T06:20:56.517Z,22.60
2018-06-09T06:23:24.955Z,22.90
2018-06-09T06:25:53.393Z,22.60
2018-06-09T06:28:21.857Z,22.00
2018-06-09T06:30:50.373Z,21.70
2018-06-09T06:33:18.787Z,21.50
2018-06-09T06:38:15.327Z,21.40
2018-06-09T06:40:43.828Z,21.20
2018-06-09T06:43:12.276Z,21.00
2018-06-09T06:45:40.716Z,21.20
2018-06-09T06:48:09.174Z,21.70
2018-06-09T06:50:37.693Z,22.60
2018-06-09T06:53:06.160Z,23.00
2018-06-09T06:55:34.681Z,23.30
2018-06-09T06:58:05.483Z,23.50
2018-06-09T07:00:34.126Z,23.10
2018-06-09T07:03:02.932Z,22.80
2018-06-09T07:05:31.565Z,22.80
2018-06-09T07:08:00.251Z,22.90
2018-06-09T07:10:28.670Z,22.60
2018-06-09T07:12:57.234Z,22.60
2018-06-09T07:15:25.774Z,22.90
2018-06-09T07:17:54.212Z,24.10
2018-06-09T07:20:22.674Z,25.10
2018-06-09T07:22:51.172Z,24.70
2018-06-09T07:27:47.811Z,24.10
2018-06-09T07:32:44.476Z,25.40
2018-06-09T07:35:13.032Z,25.70
2018-06-09T07:37:41.418Z,24.10
2018-06-09T07:40:10.304Z,23.90
2018-06-09T07:42:45.526Z,23.90
2018-06-09T07:45:14.161Z,24.30
2018-06-09T07:47:42.669Z,24.20
2018-06-09T07:50:11.264Z,23.90
2018-06-09T07:52:39.931Z,24.20
2018-06-09T07:55:08.364Z,24.80
2018-06-09T07:57:37.028Z,25.20
2018-06-09T08:00:05.602Z,25.90
2018-06-09T08:02:34.155Z,25.30
2018-06-09T08:05:02.851Z,25.40
2018-06-09T08:07:31.542Z,26.30
2018-06-09T08:10:00.001Z,27.20
2018-06-09T08:12:28.549Z,27.40
2018-06-09T08:14:57.042Z,28.10
2018-06-09T08:17:25.647Z,28.30
2018-06-09T08:19:54.087Z,28.50
2018-06-09T08:22:22.606Z,29.50
2018-06-09T08:24:51.168Z,28.80
2018-06-09T08:27:19.875Z,28.40
2018-06-09T08:29:48.484Z,28.50
2018-06-09T08:32:17.029Z,28.90
2018-06-09T08:34:45.690Z,29.00
2018-06-09T08:37:14.195Z,30.00
2018-06-09T08:39:42.671Z,30.70
2018-06-09T08:42:11.175Z,30.30
2018-06-09T08:44:39.646Z,29.70
2018-06-09T08:49:37.283Z,30.00
2018-06-09T08:52:05.751Z,30.30
2018-06-09T08:54:34.721Z,30.80
2018-06-09T08:57:06.908Z,30.70
2018-06-09T08:59:35.372Z,30.50
2018-06-09T09:02:03.837Z,30.10
2018-06-09T09:04:32.610Z,30.50
2018-06-09T09:07:01.122Z,31.20
2018-06-09T09:09:29.762Z,31.20
2018-06-09T09:11:58.276Z,30.70
2018-06-09T09:14:26.828Z,29.20
2018-06-09T09:16:55.385Z,30.20
2018-06-09T09:19:24.038Z,30.20
2018-06-09T09:21:52.521Z,30.60
2018-06-09T09:24:21.026Z,29.60
2018-06-09T09:26:49.599Z,29.50
2018-06-09T09:29:18.057Z,29.50
2018-06-09T09:31:46.521Z,29.50
2018-06-09T09:34:15.551Z,30.80
2018-06-09T09:36:44.083Z,31.40
2018-06-09T09:41:40.920Z,30.20
2018-06-09T09:44:09.348Z,29.90
2018-06-09T09:46:37.936Z,29.70
2018-06-09T09:49:06.459Z,29.40
2018-06-09T09:51:34.962Z,28.00
2018-06-09T09:54:03.542Z,28.00
2018-06-09T09:56:32.192Z,28.20
2018-06-09T09:59:00.744Z,27.90
2018-06-09T10:01:29.192Z,28.20
2018-06-09T10:03:57.661Z,28.80
2018-06-09T10:06:26.166Z,28.40
2018-06-09T10:08:54.627Z,29.30
2018-06-09T10:11:23.080Z,29.60
2018-06-09T10:13:51.560Z,29.20
2018-06-09T10:16:20.026Z,29.40
2018-06-09T10:18:48.574Z,30.50
2018-06-09T10:21:17.048Z,31.20
2018-06-09T10:26:13.692Z,32.90
2018-06-09T10:33:38.530Z,33.30
2018-06-09T10:36:07.003Z,33.10
2018-06-09T10:38:35.491Z,33.40
2018-06-09T10:41:03.956Z,32.50
2018-06-09T10:43:32.404Z,32.30
2018-06-09T10:46:00.874Z,30.40
2018-06-09T10:48:29.315Z,30.30
2018-06-09T10:50:57.748Z,29.80
2018-06-09T10:53:26.135Z,30.70
2018-06-09T10:55:54.567Z,32.40
2018-06-09T10:58:23.055Z,33.60
2018-06-09T11:00:51.467Z,33.70
2018-06-09T11:03:19.911Z,31.30
2018-06-09T11:05:48.339Z,30.70
2018-06-09T11:08:16.813Z,31.00
2018-06-09T11:10:45.272Z,31.10
2018-06-09T11:13:13.817Z,30.80
2018-06-09T11:15:42.293Z,30.20
2018-06-09T11:18:10.831Z,29.00
2018-06-09T11:20:39.340Z,27.90
2018-06-09T11:23:07.835Z,28.40
2018-06-09T11:25:36.293Z,28.60
2018-06-09T11:28:04.756Z,28.70
2018-06-09T11:30:33.161Z,28.70
2018-06-09T11:33:01.673Z,29.00
2018-06-09T11:35:30.236Z,29.30
2018-06-09T11:37:58.768Z,29.60
2018-06-09T11:40:27.197Z,29.90
2018-06-09T11:42:55.627Z,30.30
2018-06-09T11:45:24.208Z,30.00
2018-06-09T11:47:52.736Z,29.60
2018-06-09T11:50:21.212Z,29.50
2018-06-09T11:52:49.720Z,29.40
2018-06-09T11:55:18.281Z,28.60
2018-06-09T11:57:46.746Z,28.20
2018-06-09T12:00:15.243Z,27.80
2018-06-09T12:05:11.931Z,27.50
2018-06-09T12:07:40.399Z,27.30
2018-06-09T12:10:08.888Z,27.20
2018-06-09T12:12:37.296Z,27.00
2018-06-09T12:15:06.378Z,26.80
2018-06-09T12:17:34.921Z,26.70
2018-06-09T12:20:03.524Z,26.20
2018-06-09T12:22:32.003Z,25.90
2018-06-09T12:25:00.553Z,25.30
2018-06-09T12:27:29.101Z,25.10
2018-06-09T12:29:57.579Z,24.80
2018-06-09T12:32:26.137Z,24.30
2018-06-09T12:34:54.647Z,24.10
2018-06-09T12:37:23.171Z,24.10
2018-06-09T12:39:51.654Z,24.00
2018-06-09T12:42:20.163Z,23.90
2018-06-09T12:44:48.672Z,23.70
2018-06-09T12:47:17.234Z,23.80
2018-06-09T12:49:45.697Z,23.90
2018-06-09T12:52:14.188Z,23.80
2018-06-09T12:54:42.597Z,23.80
2018-06-09T12:57:11.064Z,23.90
2018-06-09T12:59:39.495Z,24.00
2018-06-09T13:02:07.947Z,24.10
2018-06-09T13:04:36.570Z,24.40
2018-06-09T13:07:05.272Z,24.50
2018-06-09T13:09:33.789Z,24.60
2018-06-09T13:12:02.281Z,24.60
2018-06-09T13:14:30.880Z,24.30
2018-06-09T13:16:59.346Z,24.40
2018-06-09T13:19:27.826Z,24.30
2018-06-09T13:21:56.422Z,24.30
2018-06-09T13:24:24.865Z,24.10
2018-06-09T13:26:53.314Z,24.00
2018-06-09T13:29:21.806Z,23.80
2018-06-09T13:31:50.348Z,23.90
2018-06-09T13:34:18.884Z,23.90
2018-06-09T13:36:47.339Z,23.80
2018-06-09T13:39:16.045Z,23.70
2018-06-09T13:41:44.621Z,23.70
2018-06-09T13:44:13.059Z,23.70
2018-06-09T13:46:41.539Z,23.80
2018-06-09T13:49:10.077Z,23.80
2018-06-09T13:51:38.607Z,24.00
2018-06-09T13:54:07.065Z,24.00
2018-06-09T13:56:35.677Z,23.90
2018-06-09T13:59:04.121Z,23.90
2018-06-09T14:01:32.641Z,23.90
2018-06-09T14:04:01.116Z,23.90
2018-06-09T14:06:29.593Z,23.80
2018-06-09T14:08:58.151Z,23.70
2018-06-09T14:11:26.730Z,23.70
2018-06-09T14:13:55.210Z,23.60
2018-06-09T14:16:23.880Z,23.50
2018-06-09T14:18:52.421Z,23.40
2018-06-09T14:21:20.958Z,22.90
2018-06-09T14:23:49.525Z,22.40
2018-06-09T14:26:18.108Z,22.10
2018-06-09T14:28:47.041Z,21.90
2018-06-09T14:33:43.856Z,22.30
2018-06-09T14:36:12.391Z,22.20
2018-06-09T14:38:40.895Z,22.20
2018-06-09T14:41:09.442Z,21.80
2018-06-09T14:43:37.972Z,21.70
2018-06-09T14:46:06.512Z,21.50
2018-06-09T14:48:35.071Z,21.30
2018-06-09T14:51:03.650Z,21.20
2018-06-09T14:53:32.121Z,21.10
2018-06-09T14:56:00.588Z,21.50
2018-06-09T14:58:29.062Z,22.00
2018-06-09T15:00:57.765Z,22.30
2018-06-09T15:03:26.237Z,22.20
2018-06-09T15:05:54.824Z,22.20
2018-06-09T15:08:23.360Z,22.40
2018-06-09T15:10:51.979Z,22.80
2018-06-09T15:13:20.538Z,23.00
2018-06-09T15:15:49.241Z,22.90
2018-06-09T15:18:17.734Z,22.70
2018-06-09T15:20:46.281Z,22.40
2018-06-09T15:23:14.846Z,22.40
2018-06-09T15:25:43.292Z,22.80
2018-06-09T15:28:11.805Z,23.20
2018-06-09T15:30:40.326Z,23.30
2018-06-09T15:33:08.878Z,23.20
2018-06-09T15:35:37.396Z,23.30
2018-06-09T15:38:05.919Z,23.50
2018-06-09T15:40:34.346Z,23.30
2018-06-09T15:43:03.108Z,22.90
2018-06-09T15:45:31.851Z,22.80
2018-06-09T15:48:00.523Z,22.70
2018-06-09T15:50:29.201Z,22.80
2018-06-09T15:52:57.776Z,22.40
2018-06-09T15:55:26.581Z,22.60
2018-06-09T15:57:55.181Z,22.90
2018-06-09T16:00:23.771Z,23.40
2018-06-09T16:02:52.368Z,23.60
2018-06-09T16:05:20.879Z,23.10
2018-06-09T16:07:49.371Z,23.40
2018-06-09T16:10:17.906Z,23.50
2018-06-09T16:12:46.341Z,23.50
2018-06-09T16:15:14.826Z,23.90
2018-06-09T16:17:43.306Z,24.10
2018-06-09T16:20:11.803Z,24.40
2018-06-09T16:22:40.269Z,24.50
2018-06-09T16:25:08.883Z,24.30
2018-06-09T16:27:37.434Z,24.40
2018-06-09T16:30:06.095Z,24.60
2018-06-09T16:32:34.721Z,24.40
2018-06-09T16:35:03.340Z,23.50
2018-06-09T16:37:31.800Z,23.50
2018-06-09T16:40:00.260Z,23.70
2018-06-09T16:42:28.874Z,23.60
2018-06-09T16:44:57.384Z,23.50
2018-06-09T16:47:25.910Z,23.80
2018-06-09T16:49:54.488Z,23.90
2018-06-09T16:52:23.007Z,24.00
2018-06-09T16:54:51.530Z,24.20
2018-06-09T16:57:20.031Z,24.10
2018-06-09T16:59:48.550Z,24.30
2018-06-09T17:02:17.000Z,23.90
2018-06-09T17:04:45.502Z,24.10
2018-06-09T17:07:14.084Z,24.30
2018-06-09T17:09:42.605Z,24.60
2018-06-09T17:14:39.467Z,24.10
2018-06-09T17:17:07.941Z,24.10
2018-06-09T17:19:36.485Z,24.10
2018-06-09T17:22:05.033Z,23.80
2018-06-09T17:24:33.489Z,23.80
2018-06-09T17:27:01.923Z,23.80
2018-06-09T17:29:30.430Z,23.60
2018-06-09T17:31:58.953Z,23.50
2018-06-09T17:34:27.469Z,23.70
2018-06-09T17:36:56.122Z,24.00
2018-06-09T17:39:24.601Z,24.20
2018-06-09T17:41:53.078Z,24.30
2018-06-09T17:44:21.669Z,24.40
2018-06-09T17:46:50.177Z,24.40
2018-06-09T17:49:18.606Z,24.40
2018-06-09T17:51:47.147Z,24.30
2018-06-09T17:54:16.007Z,24.20
2018-06-09T17:56:44.574Z,24.20
2018-06-09T17:59:13.036Z,24.30
2018-06-09T18:01:41.596Z,24.00
2018-06-09T18:04:10.098Z,23.90
2018-06-09T18:06:38.700Z,23.90
2018-06-09T18:09:08.370Z,23.70
2018-06-09T18:11:37.011Z,23.60
2018-06-09T18:14:05.655Z,23.50
2018-06-09T18:16:34.264Z,23.50
2018-06-09T18:19:02.815Z,23.50
2018-06-09T18:21:31.424Z,23.40
2018-06-09T18:24:00.012Z,23.20
2018-06-09T18:26:28.527Z,23.10
2018-06-09T18:28:57.262Z,23.00
2018-06-09T18:33:54.274Z,22.70
2018-06-09T18:36:22.908Z,22.60
2018-06-09T18:38:51.568Z,22.40
2018-06-09T18:41:20.200Z,22.20
2018-06-09T18:43:48.791Z,22.20
2018-06-09T18:46:17.266Z,22.10
2018-06-09T18:48:45.912Z,22.00
2018-06-09T18:51:14.493Z,21.90
2018-06-09T18:53:43.098Z,21.80
2018-06-09T18:56:11.706Z,21.80
2018-06-09T18:58:40.425Z,21.80
2018-06-09T19:01:09.029Z,21.70
2018-06-09T19:03:37.604Z,21.70
2018-06-09T19:06:06.240Z,21.60
2018-06-09T19:08:34.864Z,21.60
2018-06-09T19:11:03.618Z,21.60
2018-06-09T19:13:32.100Z,21.50
2018-06-09T19:16:00.732Z,21.50
2018-06-09T19:18:29.240Z,21.50
2018-06-09T19:20:57.789Z,21.40
2018-06-09T19:23:26.452Z,21.30
2018-06-09T19:25:54.929Z,21.30
2018-06-09T19:28:23.524Z,21.30
2018-06-09T19:30:54.907Z,21.20
2018-06-09T19:33:23.600Z,21.20
2018-06-09T19:35:52.317Z,21.20
2018-06-09T19:38:20.794Z,21.10
2018-06-09T19:40:49.305Z,21.10
2018-06-09T19:43:17.846Z,21.00
2018-06-09T19:45:46.437Z,21.00
2018-06-09T19:48:15.148Z,21.00
2018-06-09T19:50:43.753Z,21.00
2018-06-09T19:53:12.343Z,20.90
2018-06-09T19:55:40.876Z,20.80
2018-06-09T19:58:09.704Z,20.80
2018-06-09T20:00:38.410Z,20.80
2018-06-09T20:03:07.649Z,20.80
2018-06-09T20:05:36.207Z,20.80
2018-06-09T20:08:04.735Z,20.80
2018-06-09T20:10:33.313Z,20.80
2018-06-09T20:13:01.766Z,20.80
2018-06-09T20:15:30.239Z,20.80
2018-06-09T20:17:58.798Z,20.80
2018-06-09T20:20:27.391Z,20.70
2018-06-09T20:22:55.950Z,20.70
2018-06-09T20:25:24.597Z,20.70
2018-06-09T20:27:53.225Z,20.70
2018-06-09T20:30:21.811Z,20.60
2018-06-09T20:32:50.355Z,20.60
2018-06-09T20:35:18.982Z,20.60
2018-06-09T20:37:47.613Z,20.60
2018-06-09T20:40:16.301Z,20.60
2018-06-09T20:42:45.057Z,20.60
2018-06-09T20:45:14.157Z,20.50
2018-06-09T20:47:42.757Z,20.40
2018-06-09T20:50:11.386Z,20.30
2018-06-09T20:52:40.008Z,20.30
2018-06-09T20:55:08.739Z,20.30
2018-06-09T20:57:37.444Z,20.30
2018-06-09T21:00:06.189Z,20.20
2018-06-09T21:02:34.761Z,20.20
2018-06-09T21:05:03.308Z,20.10
2018-06-09T21:07:31.809Z,20.10
2018-06-09T21:10:00.274Z,20.00
2018-06-09T21:12:28.734Z,20.00
2018-06-09T21:14:57.257Z,20.00
2018-06-09T21:17:25.739Z,20.00
2018-06-09T21:19:54.299Z,20.00
2018-06-09T21:22:22.846Z,19.90
2018-06-09T21:24:51.460Z,19.80
2018-06-09T21:27:25.565Z,19.80
2018-06-09T21:29:58.245Z,19.80
2018-06-09T21:32:27.730Z,19.90
2018-06-09T21:35:11.665Z,19.90
2018-06-09T21:37:47.204Z,19.80
2018-06-09T21:40:21.208Z,19.70
2018-06-09T21:42:55.558Z,19.60
2018-06-09T21:45:28.370Z,19.50
2018-06-09T21:47:57.056Z,19.50
2018-06-09T21:50:25.741Z,19.60
2018-06-09T21:52:54.700Z,19.60
2018-06-09T21:55:23.176Z,19.50
2018-06-09T21:57:51.713Z,19.50
2018-06-09T22:00:20.209Z,19.50
2018-06-09T22:02:48.692Z,19.60
2018-06-09T22:05:17.270Z,19.60
2018-06-09T22:07:45.894Z,19.60
2018-06-09T22:10:14.365Z,19.60
2018-06-09T22:12:42.814Z,19.70
2018-06-09T22:15:11.339Z,19.60
2018-06-09T22:17:39.870Z,19.30
2018-06-09T22:20:08.407Z,19.20
2018-06-09T22:22:36.984Z,19.20
2018-06-09T22:25:05.528Z,19.30
2018-06-09T22:27:34.086Z,19.20
2018-06-09T22:30:02.634Z,19.20
2018-06-09T22:32:31.195Z,19.20
2018-06-09T22:34:59.751Z,19.20
2018-06-09T22:37:28.282Z,19.10
2018-06-09T22:39:56.831Z,19.00
2018-06-09T22:42:25.470Z,18.90
2018-06-09T22:44:53.965Z,18.90
2018-06-09T22:47:22.500Z,18.90
2018-06-09T22:49:50.982Z,18.90
2018-06-09T22:52:19.483Z,18.80
2018-06-09T22:54:48.027Z,18.80
2018-06-09T22:57:16.591Z,18.80
2018-06-09T22:59:45.191Z,18.80
2018-06-09T23:02:13.718Z,18.80
2018-06-09T23:04:42.211Z,18.70
2018-06-09T23:09:39.182Z,18.60
2018-06-09T23:12:07.742Z,18.60
2018-06-09T23:14:36.332Z,18.60
2018-06-09T23:17:04.857Z,18.60
2018-06-09T23:19:33.504Z,18.60
2018-06-09T23:22:02.115Z,18.60
2018-06-09T23:24:30.619Z,18.60
2018-06-09T23:26:59.113Z,18.50
2018-06-09T23:29:27.623Z,18.50
2018-06-09T23:31:56.411Z,18.40
2018-06-09T23:34:25.477Z,18.40
2018-06-09T23:36:53.993Z,18.40
2018-06-09T23:39:22.452Z,18.40
2018-06-09T23:41:51.158Z,18.40
2018-06-09T23:44:19.618Z,18.40
2018-06-09T23:46:48.613Z,18.40
2018-06-09T23:49:17.219Z,18.30
2018-06-09T23:51:46.624Z,18.30
2018-06-09T23:54:15.274Z,18.30
2018-06-09T23:56:43.792Z,18.30
2018-06-09T23:59:12.347Z,18.30
